sensor_id;sensor_type;location;lat;lon;timestamp;temperature;humidity
33865;DHT22;20159;51.072;13.526;2023-06-04T00:01:21;9.60;68.50
33865;DHT22;20159;51.072;13.526;2023-06-04T00:03:47;9.60;68.80
33865;DHT22;20159;51.072;13.526;2023-06-04T00:06:12;9.50;69.10
33865;DHT22;20159;51.072;13.526;2023-06-04T00:08:38;9.50;69.40
33865;DHT22;20159;51.072;13.526;2023-06-04T00:11:03;9.40;69.80
33865;DHT22;20159;51.072;13.526;2023-06-04T00:13:29;9.40;70.40
33865;DHT22;20159;51.072;13.526;2023-06-04T00:15:54;9.40;70.40
33865;DHT22;20159;51.072;13.526;2023-06-04T00:18:20;9.30;70.00
33865;DHT22;20159;51.072;13.526;2023-06-04T00:20:45;9.30;70.50
33865;DHT22;20159;51.072;13.526;2023-06-04T00:23:11;9.30;70.90
33865;DHT22;20159;51.072;13.526;2023-06-04T00:25:36;9.20;70.70
33865;DHT22;20159;51.072;13.526;2023-06-04T00:28:02;9.20;70.80
33865;DHT22;20159;51.072;13.526;2023-06-04T00:30:27;9.20;71.10
33865;DHT22;20159;51.072;13.526;2023-06-04T00:32:53;9.10;71.20
33865;DHT22;20159;51.072;13.526;2023-06-04T00:35:18;9.10;70.90
33865;DHT22;20159;51.072;13.526;2023-06-04T00:37:45;9.00;71.40
33865;DHT22;20159;51.072;13.526;2023-06-04T00:40:11;9.00;71.80
33865;DHT22;20159;51.072;13.526;2023-06-04T00:42:37;9.00;72.00
33865;DHT22;20159;51.072;13.526;2023-06-04T00:45:03;8.90;72.10
33865;DHT22;20159;51.072;13.526;2023-06-04T00:47:28;8.90;72.10
33865;DHT22;20159;51.072;13.526;2023-06-04T00:49:56;8.90;72.00
33865;DHT22;20159;51.072;13.526;2023-06-04T00:52:23;8.90;72.40
33865;DHT22;20159;51.072;13.526;2023-06-04T00:54:49;8.90;72.50
33865;DHT22;20159;51.072;13.526;2023-06-04T00:57:15;8.80;72.50
33865;DHT22;20159;51.072;13.526;2023-06-04T00:59:41;8.80;72.30
33865;DHT22;20159;51.072;13.526;2023-06-04T01:02:11;8.70;72.50
33865;DHT22;20159;51.072;13.526;2023-06-04T01:05:07;8.70;73.00
33865;DHT22;20159;51.072;13.526;2023-06-04T01:07:37;8.70;73.40
33865;DHT22;20159;51.072;13.526;2023-06-04T01:10:05;8.70;72.30
33865;DHT22;20159;51.072;13.526;2023-06-04T01:12:31;8.70;72.70
33865;DHT22;20159;51.072;13.526;2023-06-04T01:14:56;8.70;72.70
33865;DHT22;20159;51.072;13.526;2023-06-04T01:17:23;8.60;72.80
33865;DHT22;20159;51.072;13.526;2023-06-04T01:20:43;8.60;72.90
33865;DHT22;20159;51.072;13.526;2023-06-04T01:23:01;8.60;73.20
33865;DHT22;20159;51.072;13.526;2023-06-04T01:25:32;8.60;73.20
33865;DHT22;20159;51.072;13.526;2023-06-04T01:27:58;8.60;72.70
33865;DHT22;20159;51.072;13.526;2023-06-04T01:30:26;8.50;72.80
33865;DHT22;20159;51.072;13.526;2023-06-04T01:32:56;8.50;73.10
33865;DHT22;20159;51.072;13.526;2023-06-04T01:35:22;8.50;73.40
33865;DHT22;20159;51.072;13.526;2023-06-04T01:37:48;8.50;73.30
33865;DHT22;20159;51.072;13.526;2023-06-04T01:40:14;8.50;73.30
33865;DHT22;20159;51.072;13.526;2023-06-04T01:42:41;8.40;73.20
33865;DHT22;20159;51.072;13.526;2023-06-04T01:45:07;8.40;73.50
33865;DHT22;20159;51.072;13.526;2023-06-04T01:47:33;8.40;73.70
33865;DHT22;20159;51.072;13.526;2023-06-04T01:50:00;8.40;73.80
33865;DHT22;20159;51.072;13.526;2023-06-04T01:52:25;8.40;74.00
33865;DHT22;20159;51.072;13.526;2023-06-04T01:54:52;8.40;73.90
33865;DHT22;20159;51.072;13.526;2023-06-04T01:57:21;8.40;74.10
33865;DHT22;20159;51.072;13.526;2023-06-04T01:59:47;8.40;74.20
33865;DHT22;20159;51.072;13.526;2023-06-04T02:02:14;8.40;74.10
33865;DHT22;20159;51.072;13.526;2023-06-04T02:04:39;8.30;73.90
33865;DHT22;20159;51.072;13.526;2023-06-04T02:07:08;8.30;74.10
33865;DHT22;20159;51.072;13.526;2023-06-04T02:09:33;8.30;74.10
33865;DHT22;20159;51.072;13.526;2023-06-04T02:12:00;8.30;74.10
33865;DHT22;20159;51.072;13.526;2023-06-04T02:14:25;8.30;73.90
33865;DHT22;20159;51.072;13.526;2023-06-04T02:16:51;8.20;74.50
33865;DHT22;20159;51.072;13.526;2023-06-04T02:19:19;8.20;74.10
33865;DHT22;20159;51.072;13.526;2023-06-04T02:21:46;8.20;74.30
33865;DHT22;20159;51.072;13.526;2023-06-04T02:24:12;8.20;74.30
33865;DHT22;20159;51.072;13.526;2023-06-04T02:26:38;8.20;74.70
33865;DHT22;20159;51.072;13.526;2023-06-04T02:29:03;8.20;74.90
33865;DHT22;20159;51.072;13.526;2023-06-04T02:31:29;8.20;74.80
33865;DHT22;20159;51.072;13.526;2023-06-04T02:33:56;8.10;74.90
33865;DHT22;20159;51.072;13.526;2023-06-04T02:36:21;8.10;75.10
33865;DHT22;20159;51.072;13.526;2023-06-04T02:38:47;8.10;75.30
33865;DHT22;20159;51.072;13.526;2023-06-04T02:41:12;8.00;75.30
33865;DHT22;20159;51.072;13.526;2023-06-04T02:43:38;8.00;75.20
33865;DHT22;20159;51.072;13.526;2023-06-04T02:46:03;7.90;75.40
33865;DHT22;20159;51.072;13.526;2023-06-04T02:48:29;7.90;75.50
33865;DHT22;20159;51.072;13.526;2023-06-04T02:50:54;7.90;75.70
33865;DHT22;20159;51.072;13.526;2023-06-04T02:53:20;7.80;75.90
33865;DHT22;20159;51.072;13.526;2023-06-04T02:55:46;7.80;75.90
33865;DHT22;20159;51.072;13.526;2023-06-04T02:58:11;7.80;75.70
33865;DHT22;20159;51.072;13.526;2023-06-04T03:00:37;7.80;75.90
33865;DHT22;20159;51.072;13.526;2023-06-04T03:03:02;7.70;76.20
33865;DHT22;20159;51.072;13.526;2023-06-04T03:05:28;7.70;76.60
33865;DHT22;20159;51.072;13.526;2023-06-04T03:07:56;7.60;76.80
33865;DHT22;20159;51.072;13.526;2023-06-04T03:10:22;7.60;76.70
33865;DHT22;20159;51.072;13.526;2023-06-04T03:12:48;7.60;76.80
33865;DHT22;20159;51.072;13.526;2023-06-04T03:15:13;7.60;77.10
33865;DHT22;20159;51.072;13.526;2023-06-04T03:17:40;7.50;76.90
33865;DHT22;20159;51.072;13.526;2023-06-04T03:20:06;7.50;77.10
33865;DHT22;20159;51.072;13.526;2023-06-04T03:22:33;7.50;77.30
33865;DHT22;20159;51.072;13.526;2023-06-04T03:25:01;7.60;77.40
33865;DHT22;20159;51.072;13.526;2023-06-04T03:27:27;7.50;77.40
33865;DHT22;20159;51.072;13.526;2023-06-04T03:29:52;7.50;78.00
33865;DHT22;20159;51.072;13.526;2023-06-04T03:32:18;7.50;77.50
33865;DHT22;20159;51.072;13.526;2023-06-04T03:34:44;7.50;77.70
33865;DHT22;20159;51.072;13.526;2023-06-04T03:37:09;7.50;78.00
33865;DHT22;20159;51.072;13.526;2023-06-04T03:39:35;7.50;78.20
33865;DHT22;20159;51.072;13.526;2023-06-04T03:42:01;7.60;78.20
33865;DHT22;20159;51.072;13.526;2023-06-04T03:44:26;7.60;78.20
33865;DHT22;20159;51.072;13.526;2023-06-04T03:46:52;7.60;78.30
33865;DHT22;20159;51.072;13.526;2023-06-04T03:49:17;7.70;78.30
33865;DHT22;20159;51.072;13.526;2023-06-04T03:51:43;7.70;78.60
33865;DHT22;20159;51.072;13.526;2023-06-04T03:54:09;7.70;78.80
33865;DHT22;20159;51.072;13.526;2023-06-04T03:56:35;7.80;78.90
33865;DHT22;20159;51.072;13.526;2023-06-04T03:59:00;7.80;79.00
33865;DHT22;20159;51.072;13.526;2023-06-04T04:01:26;7.90;79.20
33865;DHT22;20159;51.072;13.526;2023-06-04T04:03:52;8.00;79.10
33865;DHT22;20159;51.072;13.526;2023-06-04T04:06:18;8.00;79.00
33865;DHT22;20159;51.072;13.526;2023-06-04T04:08:44;8.10;78.90
33865;DHT22;20159;51.072;13.526;2023-06-04T04:11:15;8.20;78.80
33865;DHT22;20159;51.072;13.526;2023-06-04T04:13:41;8.20;78.70
33865;DHT22;20159;51.072;13.526;2023-06-04T04:16:07;8.30;78.60
33865;DHT22;20159;51.072;13.526;2023-06-04T04:18:34;8.40;79.10
33865;DHT22;20159;51.072;13.526;2023-06-04T04:21:00;8.50;79.70
33865;DHT22;20159;51.072;13.526;2023-06-04T04:23:26;8.70;80.20
33865;DHT22;20159;51.072;13.526;2023-06-04T04:25:52;8.90;80.70
33865;DHT22;20159;51.072;13.526;2023-06-04T04:28:19;9.10;80.40
33865;DHT22;20159;51.072;13.526;2023-06-04T04:30:45;9.40;80.50
33865;DHT22;20159;51.072;13.526;2023-06-04T04:33:12;9.70;80.20
33865;DHT22;20159;51.072;13.526;2023-06-04T04:35:41;10.10;80.10
33865;DHT22;20159;51.072;13.526;2023-06-04T04:38:07;10.40;80.00
33865;DHT22;20159;51.072;13.526;2023-06-04T04:40:33;10.80;79.40
33865;DHT22;20159;51.072;13.526;2023-06-04T04:42:58;11.20;79.00
33865;DHT22;20159;51.072;13.526;2023-06-04T04:45:24;11.60;78.70
33865;DHT22;20159;51.072;13.526;2023-06-04T04:47:49;12.00;78.30
33865;DHT22;20159;51.072;13.526;2023-06-04T04:50:16;12.40;77.90
33865;DHT22;20159;51.072;13.526;2023-06-04T04:52:42;12.80;76.60
33865;DHT22;20159;51.072;13.526;2023-06-04T04:55:08;13.20;75.40
33865;DHT22;20159;51.072;13.526;2023-06-04T04:57:33;13.60;74.20
33865;DHT22;20159;51.072;13.526;2023-06-04T04:59:59;14.00;73.90
33865;DHT22;20159;51.072;13.526;2023-06-04T05:02:24;14.40;72.70
33865;DHT22;20159;51.072;13.526;2023-06-04T05:04:50;14.80;72.20
33865;DHT22;20159;51.072;13.526;2023-06-04T05:07:16;15.20;71.70
33865;DHT22;20159;51.072;13.526;2023-06-04T05:09:42;15.60;70.70
33865;DHT22;20159;51.072;13.526;2023-06-04T05:12:07;16.00;70.00
33865;DHT22;20159;51.072;13.526;2023-06-04T05:14:33;16.40;69.00
33865;DHT22;20159;51.072;13.526;2023-06-04T05:17:01;16.80;68.20
33865;DHT22;20159;51.072;13.526;2023-06-04T05:19:28;17.20;67.50
33865;DHT22;20159;51.072;13.526;2023-06-04T05:21:54;17.60;66.00
33865;DHT22;20159;51.072;13.526;2023-06-04T05:24:19;18.00;65.30
33865;DHT22;20159;51.072;13.526;2023-06-04T05:26:45;18.30;63.30
33865;DHT22;20159;51.072;13.526;2023-06-04T05:29:13;18.70;63.20
33865;DHT22;20159;51.072;13.526;2023-06-04T05:31:39;19.10;63.80
33865;DHT22;20159;51.072;13.526;2023-06-04T05:34:05;19.50;63.00
33865;DHT22;20159;51.072;13.526;2023-06-04T05:36:30;19.90;62.10
33865;DHT22;20159;51.072;13.526;2023-06-04T05:38:56;20.20;61.30
33865;DHT22;20159;51.072;13.526;2023-06-04T05:41:25;20.60;60.00
33865;DHT22;20159;51.072;13.526;2023-06-04T05:43:51;20.90;59.40
33865;DHT22;20159;51.072;13.526;2023-06-04T05:46:17;21.30;58.40
33865;DHT22;20159;51.072;13.526;2023-06-04T05:48:43;21.60;56.30
33865;DHT22;20159;51.072;13.526;2023-06-04T05:51:08;22.10;56.00
33865;DHT22;20159;51.072;13.526;2023-06-04T05:53:34;22.30;54.50
33865;DHT22;20159;51.072;13.526;2023-06-04T05:55:59;22.70;53.90
33865;DHT22;20159;51.072;13.526;2023-06-04T05:58:25;23.00;52.60
33865;DHT22;20159;51.072;13.526;2023-06-04T06:00:51;23.30;51.30
33865;DHT22;20159;51.072;13.526;2023-06-04T06:03:16;23.60;51.50
33865;DHT22;20159;51.072;13.526;2023-06-04T06:05:42;23.90;50.80
33865;DHT22;20159;51.072;13.526;2023-06-04T06:08:08;24.20;48.90
33865;DHT22;20159;51.072;13.526;2023-06-04T06:10:34;24.50;48.90
33865;DHT22;20159;51.072;13.526;2023-06-04T06:13:00;24.70;48.80
33865;DHT22;20159;51.072;13.526;2023-06-04T06:15:28;25.00;47.30
33865;DHT22;20159;51.072;13.526;2023-06-04T06:17:54;24.20;46.40
33865;DHT22;20159;51.072;13.526;2023-06-04T06:20:20;25.60;45.90
33865;DHT22;20159;51.072;13.526;2023-06-04T06:22:47;25.80;45.40
33865;DHT22;20159;51.072;13.526;2023-06-04T06:25:13;26.10;43.70
33865;DHT22;20159;51.072;13.526;2023-06-04T06:27:41;26.30;44.50
33865;DHT22;20159;51.072;13.526;2023-06-04T06:30:07;26.60;44.30
33865;DHT22;20159;51.072;13.526;2023-06-04T06:32:33;26.80;43.00
33865;DHT22;20159;51.072;13.526;2023-06-04T06:34:58;27.00;43.00
33865;DHT22;20159;51.072;13.526;2023-06-04T06:37:24;27.20;42.40
33865;DHT22;20159;51.072;13.526;2023-06-04T06:39:49;27.40;41.20
33865;DHT22;20159;51.072;13.526;2023-06-04T06:42:15;27.50;41.20
33865;DHT22;20159;51.072;13.526;2023-06-04T06:44:43;27.70;41.30
33865;DHT22;20159;51.072;13.526;2023-06-04T06:47:09;27.80;39.70
33865;DHT22;20159;51.072;13.526;2023-06-04T06:49:41;28.00;39.80
33865;DHT22;20159;51.072;13.526;2023-06-04T06:52:07;28.10;40.20
33865;DHT22;20159;51.072;13.526;2023-06-04T06:54:32;28.20;39.10
33865;DHT22;20159;51.072;13.526;2023-06-04T06:56:58;28.40;39.50
33865;DHT22;20159;51.072;13.526;2023-06-04T06:59:24;28.50;39.50
33865;DHT22;20159;51.072;13.526;2023-06-04T07:01:50;28.70;39.50
33865;DHT22;20159;51.072;13.526;2023-06-04T07:04:16;28.80;39.10
33865;DHT22;20159;51.072;13.526;2023-06-04T07:06:41;29.00;38.90
33865;DHT22;20159;51.072;13.526;2023-06-04T07:09:07;29.20;38.80
33865;DHT22;20159;51.072;13.526;2023-06-04T07:11:33;29.40;38.60
33865;DHT22;20159;51.072;13.526;2023-06-04T07:13:59;29.60;37.80
33865;DHT22;20159;51.072;13.526;2023-06-04T07:16:24;29.70;36.80
33865;DHT22;20159;51.072;13.526;2023-06-04T07:18:50;29.70;36.50
33865;DHT22;20159;51.072;13.526;2023-06-04T07:21:16;29.80;36.40
33865;DHT22;20159;51.072;13.526;2023-06-04T07:23:41;29.80;36.10
33865;DHT22;20159;51.072;13.526;2023-06-04T07:26:07;29.80;35.40
33865;DHT22;20159;51.072;13.526;2023-06-04T07:28:33;29.80;35.60
33865;DHT22;20159;51.072;13.526;2023-06-04T07:30:58;29.90;35.50
33865;DHT22;20159;51.072;13.526;2023-06-04T07:33:24;29.90;35.50
33865;DHT22;20159;51.072;13.526;2023-06-04T07:35:50;30.00;35.50
33865;DHT22;20159;51.072;13.526;2023-06-04T07:38:16;30.10;35.70
33865;DHT22;20159;51.072;13.526;2023-06-04T07:40:43;30.10;35.30
33865;DHT22;20159;51.072;13.526;2023-06-04T07:43:08;30.20;35.00
33865;DHT22;20159;51.072;13.526;2023-06-04T07:45:34;30.30;34.80
33865;DHT22;20159;51.072;13.526;2023-06-04T07:47:59;30.30;35.00
33865;DHT22;20159;51.072;13.526;2023-06-04T07:50:25;30.40;35.10
33865;DHT22;20159;51.072;13.526;2023-06-04T07:52:50;30.50;34.70
33865;DHT22;20159;51.072;13.526;2023-06-04T07:55:16;30.50;34.30
33865;DHT22;20159;51.072;13.526;2023-06-04T07:57:42;30.50;34.70
33865;DHT22;20159;51.072;13.526;2023-06-04T08:00:08;30.60;35.50
33865;DHT22;20159;51.072;13.526;2023-06-04T08:02:34;30.60;34.80
33865;DHT22;20159;51.072;13.526;2023-06-04T08:05:00;30.60;34.30
33865;DHT22;20159;51.072;13.526;2023-06-04T08:07:27;30.60;34.20
33865;DHT22;20159;51.072;13.526;2023-06-04T08:09:53;30.60;35.00
33865;DHT22;20159;51.072;13.526;2023-06-04T08:12:20;30.70;34.50
33865;DHT22;20159;51.072;13.526;2023-06-04T08:14:46;30.70;34.40
33865;DHT22;20159;51.072;13.526;2023-06-04T08:17:11;30.80;34.20
33865;DHT22;20159;51.072;13.526;2023-06-04T08:19:37;30.80;34.00
33865;DHT22;20159;51.072;13.526;2023-06-04T08:22:02;30.80;33.70
33865;DHT22;20159;51.072;13.526;2023-06-04T08:24:28;30.80;33.90
33865;DHT22;20159;51.072;13.526;2023-06-04T08:26:53;30.90;33.90
33865;DHT22;20159;51.072;13.526;2023-06-04T08:29:19;30.90;34.60
33865;DHT22;20159;51.072;13.526;2023-06-04T08:31:44;30.90;34.00
33865;DHT22;20159;51.072;13.526;2023-06-04T08:34:10;30.90;33.40
33865;DHT22;20159;51.072;13.526;2023-06-04T08:36:35;30.90;33.70
33865;DHT22;20159;51.072;13.526;2023-06-04T08:39:01;30.90;34.00
33865;DHT22;20159;51.072;13.526;2023-06-04T08:41:56;31.00;33.50
33865;DHT22;20159;51.072;13.526;2023-06-04T08:44:24;31.00;33.30
33865;DHT22;20159;51.072;13.526;2023-06-04T08:46:53;31.00;32.70
33865;DHT22;20159;51.072;13.526;2023-06-04T08:49:22;31.00;31.60
33865;DHT22;20159;51.072;13.526;2023-06-04T08:51:48;31.00;32.30
33865;DHT22;20159;51.072;13.526;2023-06-04T08:54:14;30.90;32.00
33865;DHT22;20159;51.072;13.526;2023-06-04T08:56:40;30.90;32.40
33865;DHT22;20159;51.072;13.526;2023-06-04T08:59:07;30.90;31.90
33865;DHT22;20159;51.072;13.526;2023-06-04T09:01:33;30.80;31.20
33865;DHT22;20159;51.072;13.526;2023-06-04T09:04:01;30.80;31.60
33865;DHT22;20159;51.072;13.526;2023-06-04T09:06:29;30.80;32.20
33865;DHT22;20159;51.072;13.526;2023-06-04T09:08:57;30.80;32.00
33865;DHT22;20159;51.072;13.526;2023-06-04T09:11:26;30.80;32.70
33865;DHT22;20159;51.072;13.526;2023-06-04T09:13:53;30.80;31.60
33865;DHT22;20159;51.072;13.526;2023-06-04T09:16:18;30.80;31.30
33865;DHT22;20159;51.072;13.526;2023-06-04T09:18:45;30.80;32.00
33865;DHT22;20159;51.072;13.526;2023-06-04T09:21:10;30.70;31.90
33865;DHT22;20159;51.072;13.526;2023-06-04T09:23:46;30.70;32.70
33865;DHT22;20159;51.072;13.526;2023-06-04T09:26:13;30.70;32.60
33865;DHT22;20159;51.072;13.526;2023-06-04T09:28:45;30.70;32.20
33865;DHT22;20159;51.072;13.526;2023-06-04T09:31:15;30.70;32.10
33865;DHT22;20159;51.072;13.526;2023-06-04T09:33:45;30.70;32.60
33865;DHT22;20159;51.072;13.526;2023-06-04T09:36:11;30.70;31.50
33865;DHT22;20159;51.072;13.526;2023-06-04T09:38:37;30.70;31.60
33865;DHT22;20159;51.072;13.526;2023-06-04T09:41:03;30.70;31.40
33865;DHT22;20159;51.072;13.526;2023-06-04T09:43:32;30.70;31.40
33865;DHT22;20159;51.072;13.526;2023-06-04T09:46:12;30.70;31.00
33865;DHT22;20159;51.072;13.526;2023-06-04T09:48:38;30.60;32.00
33865;DHT22;20159;51.072;13.526;2023-06-04T09:51:11;30.60;31.30
33865;DHT22;20159;51.072;13.526;2023-06-04T09:53:38;30.60;30.90
33865;DHT22;20159;51.072;13.526;2023-06-04T09:56:05;30.60;32.20
33865;DHT22;20159;51.072;13.526;2023-06-04T09:58:37;30.60;31.50
33865;DHT22;20159;51.072;13.526;2023-06-04T10:01:04;30.60;30.70
33865;DHT22;20159;51.072;13.526;2023-06-04T10:03:35;30.60;30.20
33865;DHT22;20159;51.072;13.526;2023-06-04T10:06:03;30.60;30.40
33865;DHT22;20159;51.072;13.526;2023-06-04T10:08:30;30.50;30.20
33865;DHT22;20159;51.072;13.526;2023-06-04T10:10:59;30.50;30.80
33865;DHT22;20159;51.072;13.526;2023-06-04T10:13:37;30.50;30.60
33865;DHT22;20159;51.072;13.526;2023-06-04T10:16:04;30.50;30.30
33865;DHT22;20159;51.072;13.526;2023-06-04T10:18:32;30.50;31.20
33865;DHT22;20159;51.072;13.526;2023-06-04T10:20:59;30.50;30.90
33865;DHT22;20159;51.072;13.526;2023-06-04T10:23:24;30.60;30.30
33865;DHT22;20159;51.072;13.526;2023-06-04T10:25:51;30.70;32.00
33865;DHT22;20159;51.072;13.526;2023-06-04T10:28:20;30.80;31.20
33865;DHT22;20159;51.072;13.526;2023-06-04T10:30:47;30.80;30.90
33865;DHT22;20159;51.072;13.526;2023-06-04T10:33:19;30.90;31.00
33865;DHT22;20159;51.072;13.526;2023-06-04T10:35:49;31.00;32.00
33865;DHT22;20159;51.072;13.526;2023-06-04T10:38:15;31.10;31.00
33865;DHT22;20159;51.072;13.526;2023-06-04T10:40:42;31.10;30.80
33865;DHT22;20159;51.072;13.526;2023-06-04T10:43:11;31.20;30.80
33865;DHT22;20159;51.072;13.526;2023-06-04T10:45:38;31.30;30.60
33865;DHT22;20159;51.072;13.526;2023-06-04T10:48:05;31.30;30.40
33865;DHT22;20159;51.072;13.526;2023-06-04T10:50:35;31.40;30.40
33865;DHT22;20159;51.072;13.526;2023-06-04T10:53:01;31.40;29.90
33865;DHT22;20159;51.072;13.526;2023-06-04T10:55:31;31.40;30.00
33865;DHT22;20159;51.072;13.526;2023-06-04T10:57:58;31.40;29.70
33865;DHT22;20159;51.072;13.526;2023-06-04T11:00:41;31.40;29.70
33865;DHT22;20159;51.072;13.526;2023-06-04T11:03:09;31.30;29.40
33865;DHT22;20159;51.072;13.526;2023-06-04T11:05:43;31.20;29.30
33865;DHT22;20159;51.072;13.526;2023-06-04T11:08:10;31.10;29.10
33865;DHT22;20159;51.072;13.526;2023-06-04T11:10:38;31.00;29.80
33865;DHT22;20159;51.072;13.526;2023-06-04T11:13:04;31.00;29.70
33865;DHT22;20159;51.072;13.526;2023-06-04T11:15:44;31.10;29.80
33865;DHT22;20159;51.072;13.526;2023-06-04T11:18:35;31.10;29.50
33865;DHT22;20159;51.072;13.526;2023-06-04T11:21:01;31.10;29.70
33865;DHT22;20159;51.072;13.526;2023-06-04T11:23:27;31.00;29.90
33865;DHT22;20159;51.072;13.526;2023-06-04T11:25:52;31.00;29.60
33865;DHT22;20159;51.072;13.526;2023-06-04T11:28:18;31.00;30.00
33865;DHT22;20159;51.072;13.526;2023-06-04T11:31:05;31.00;30.70
33865;DHT22;20159;51.072;13.526;2023-06-04T11:33:46;31.10;30.20
33865;DHT22;20159;51.072;13.526;2023-06-04T11:36:25;31.20;29.80
33865;DHT22;20159;51.072;13.526;2023-06-04T11:38:59;31.20;30.00
33865;DHT22;20159;51.072;13.526;2023-06-04T11:41:32;31.30;29.70
33865;DHT22;20159;51.072;13.526;2023-06-04T11:44:03;31.30;29.80
33865;DHT22;20159;51.072;13.526;2023-06-04T11:46:31;31.40;30.00
33865;DHT22;20159;51.072;13.526;2023-06-04T11:48:57;31.50;29.50
33865;DHT22;20159;51.072;13.526;2023-06-04T11:51:23;31.60;29.70
33865;DHT22;20159;51.072;13.526;2023-06-04T11:53:49;31.70;29.90
33865;DHT22;20159;51.072;13.526;2023-06-04T11:56:15;31.70;29.30
33865;DHT22;20159;51.072;13.526;2023-06-04T11:58:41;31.80;29.70
33865;DHT22;20159;51.072;13.526;2023-06-04T12:01:08;31.80;29.60
33865;DHT22;20159;51.072;13.526;2023-06-04T12:03:38;31.90;29.30
33865;DHT22;20159;51.072;13.526;2023-06-04T12:06:18;32.00;29.10
33865;DHT22;20159;51.072;13.526;2023-06-04T12:08:54;32.00;29.60
33865;DHT22;20159;51.072;13.526;2023-06-04T12:11:32;32.00;29.00
33865;DHT22;20159;51.072;13.526;2023-06-04T12:14:00;32.10;30.00
33865;DHT22;20159;51.072;13.526;2023-06-04T12:16:26;32.10;29.20
33865;DHT22;20159;51.072;13.526;2023-06-04T12:18:52;32.20;29.20
33865;DHT22;20159;51.072;13.526;2023-06-04T12:21:29;32.20;29.20
33865;DHT22;20159;51.072;13.526;2023-06-04T12:26:34;32.30;29.80
33865;DHT22;20159;51.072;13.526;2023-06-04T12:29:08;32.30;29.30
33865;DHT22;20159;51.072;13.526;2023-06-04T12:31:36;32.40;28.90
33865;DHT22;20159;51.072;13.526;2023-06-04T12:34:01;32.40;29.20
33865;DHT22;20159;51.072;13.526;2023-06-04T12:36:27;32.40;29.80
33865;DHT22;20159;51.072;13.526;2023-06-04T12:38:58;32.50;28.80
33865;DHT22;20159;51.072;13.526;2023-06-04T12:41:24;32.60;29.30
33865;DHT22;20159;51.072;13.526;2023-06-04T12:43:51;32.70;29.10
33865;DHT22;20159;51.072;13.526;2023-06-04T12:46:16;32.70;28.40
33865;DHT22;20159;51.072;13.526;2023-06-04T12:48:42;32.70;28.60
33865;DHT22;20159;51.072;13.526;2023-06-04T12:51:08;32.70;29.00
33865;DHT22;20159;51.072;13.526;2023-06-04T12:53:38;32.70;28.70
33865;DHT22;20159;51.072;13.526;2023-06-04T12:56:04;32.70;28.80
33865;DHT22;20159;51.072;13.526;2023-06-04T12:58:29;32.80;28.70
33865;DHT22;20159;51.072;13.526;2023-06-04T13:00:55;32.80;28.90
33865;DHT22;20159;51.072;13.526;2023-06-04T13:03:21;32.90;28.90
33865;DHT22;20159;51.072;13.526;2023-06-04T13:05:46;33.00;29.00
33865;DHT22;20159;51.072;13.526;2023-06-04T13:08:12;33.10;29.10
33865;DHT22;20159;51.072;13.526;2023-06-04T13:10:37;33.20;28.90
33865;DHT22;20159;51.072;13.526;2023-06-04T13:13:03;33.20;28.90
33865;DHT22;20159;51.072;13.526;2023-06-04T13:15:28;33.30;29.00
33865;DHT22;20159;51.072;13.526;2023-06-04T13:17:54;33.40;28.80
33865;DHT22;20159;51.072;13.526;2023-06-04T13:20:20;33.40;28.60
33865;DHT22;20159;51.072;13.526;2023-06-04T13:22:45;33.40;28.40
33865;DHT22;20159;51.072;13.526;2023-06-04T13:25:12;33.40;28.30
33865;DHT22;20159;51.072;13.526;2023-06-04T13:27:38;33.40;28.40
33865;DHT22;20159;51.072;13.526;2023-06-04T13:30:04;33.40;28.40
33865;DHT22;20159;51.072;13.526;2023-06-04T13:32:30;33.30;28.20
33865;DHT22;20159;51.072;13.526;2023-06-04T13:34:56;33.20;28.50
33865;DHT22;20159;51.072;13.526;2023-06-04T13:37:22;33.20;27.80
33865;DHT22;20159;51.072;13.526;2023-06-04T13:39:47;33.10;27.80
33865;DHT22;20159;51.072;13.526;2023-06-04T13:42:13;33.10;28.00
33865;DHT22;20159;51.072;13.526;2023-06-04T13:44:38;33.10;28.20
33865;DHT22;20159;51.072;13.526;2023-06-04T13:47:04;33.00;28.10
33865;DHT22;20159;51.072;13.526;2023-06-04T13:49:33;33.10;28.20
33865;DHT22;20159;51.072;13.526;2023-06-04T13:51:58;33.00;27.90
33865;DHT22;20159;51.072;13.526;2023-06-04T13:54:24;33.00;28.20
33865;DHT22;20159;51.072;13.526;2023-06-04T13:56:49;33.10;28.60
33865;DHT22;20159;51.072;13.526;2023-06-04T13:59:15;33.20;28.40
33865;DHT22;20159;51.072;13.526;2023-06-04T14:01:40;33.30;28.10
33865;DHT22;20159;51.072;13.526;2023-06-04T14:04:06;33.40;28.40
33865;DHT22;20159;51.072;13.526;2023-06-04T14:06:32;33.50;28.20
33865;DHT22;20159;51.072;13.526;2023-06-04T14:08:58;33.70;28.20
33865;DHT22;20159;51.072;13.526;2023-06-04T14:11:24;33.70;28.40
33865;DHT22;20159;51.072;13.526;2023-06-04T14:13:49;33.80;28.10
33865;DHT22;20159;51.072;13.526;2023-06-04T14:16:15;34.00;28.30
33865;DHT22;20159;51.072;13.526;2023-06-04T14:18:40;34.00;27.90
33865;DHT22;20159;51.072;13.526;2023-06-04T14:21:06;34.10;27.80
33865;DHT22;20159;51.072;13.526;2023-06-04T14:23:31;34.10;27.20
33865;DHT22;20159;51.072;13.526;2023-06-04T14:25:57;34.10;27.70
33865;DHT22;20159;51.072;13.526;2023-06-04T14:28:22;34.20;28.00
33865;DHT22;20159;51.072;13.526;2023-06-04T14:30:48;34.30;27.50
33865;DHT22;20159;51.072;13.526;2023-06-04T14:33:13;34.40;27.40
33865;DHT22;20159;51.072;13.526;2023-06-04T14:35:39;34.40;27.20
33865;DHT22;20159;51.072;13.526;2023-06-04T14:38:09;34.40;26.90
33865;DHT22;20159;51.072;13.526;2023-06-04T14:40:34;34.40;27.10
33865;DHT22;20159;51.072;13.526;2023-06-04T14:43:01;34.30;26.80
33865;DHT22;20159;51.072;13.526;2023-06-04T14:45:26;34.30;27.10
33865;DHT22;20159;51.072;13.526;2023-06-04T14:47:51;34.30;27.10
33865;DHT22;20159;51.072;13.526;2023-06-04T14:50:17;34.30;26.60
33865;DHT22;20159;51.072;13.526;2023-06-04T14:52:44;34.30;26.60
33865;DHT22;20159;51.072;13.526;2023-06-04T14:55:09;34.30;26.50
33865;DHT22;20159;51.072;13.526;2023-06-04T14:57:35;34.30;26.60
33865;DHT22;20159;51.072;13.526;2023-06-04T15:00:01;34.30;26.60
33865;DHT22;20159;51.072;13.526;2023-06-04T15:02:27;34.40;26.90
33865;DHT22;20159;51.072;13.526;2023-06-04T15:04:55;34.40;27.00
33865;DHT22;20159;51.072;13.526;2023-06-04T15:07:21;34.40;27.10
33865;DHT22;20159;51.072;13.526;2023-06-04T15:09:46;34.40;27.40
33865;DHT22;20159;51.072;13.526;2023-06-04T15:12:13;34.40;27.20
33865;DHT22;20159;51.072;13.526;2023-06-04T15:14:40;34.40;27.30
33865;DHT22;20159;51.072;13.526;2023-06-04T15:17:05;34.40;27.30
33865;DHT22;20159;51.072;13.526;2023-06-04T15:19:32;34.40;27.20
33865;DHT22;20159;51.072;13.526;2023-06-04T15:21:58;34.30;27.20